Time;durP1;ratioP1;P1;durP2;ratioP2;P2;SDS_P1;SDS_P2;PMS_P1;PMS_P2;Temp;Humidity;BMP_temperature;BMP_pressure;BME280_temperature;BME280_humidity;BME280_pressure;Samples;Min_cycle;Max_cycle;Signal;HPM_P1;HPM_P2
2021/06/05 00:00:11;;;;;;;;;;;21.60;99.90;;;;;;2081439;28;737;-63
2021/06/05 00:01:32;;;;;;;;;;;21.60;99.90;;;;;;2081261;28;1695;-63
2021/06/05 00:02:51;;;;;;;;;;;21.60;99.90;;;;;;2083515;28;1445;-63
2021/06/05 00:04:11;;;;;;;;;;;21.50;99.90;;;;;;2076101;28;1395;-63
2021/06/05 00:05:34;;;;;;;;;;;21.60;99.90;;;;;;2069451;28;1182;-63
2021/06/05 00:06:53;;;;;;;;;;;21.60;99.90;;;;;;2075570;28;977;-63
2021/06/05 00:08:12;;;;;;;;;;;21.60;99.90;;;;;;2090466;28;722;-63
2021/06/05 00:09:31;;;;;;;;;;;21.60;99.90;;;;;;2089654;28;732;-62
2021/06/05 00:10:55;;;;;;;;;;;21.50;99.90;;;;;;2090142;28;733;-63
2021/06/05 00:12:16;;;;;;;;;;;21.50;99.90;;;;;;2073467;28;742;-63
2021/06/05 00:13:36;;;;;;;;;;;21.50;99.90;;;;;;2073675;28;1421;-62
2021/06/05 00:14:55;;;;;;;;;;;21.50;99.90;;;;;;2066336;28;691;-62
2021/06/05 00:16:18;;;;;;;;;;;21.50;99.90;;;;;;2063481;28;766;-63
2021/06/05 00:17:37;;;;;;;;;;;21.50;99.90;;;;;;2072090;28;758;-63
2021/06/05 00:18:57;;;;;;;;;;;21.50;99.90;;;;;;2074959;28;724;-62
2021/06/05 00:20:16;;;;;;;;;;;21.50;99.90;;;;;;2081541;28;1219;-63
2021/06/05 00:21:35;;;;;;;;;;;21.50;99.90;;;;;;2081849;28;1927;-63
2021/06/05 00:22:54;;;;;;;;;;;21.50;99.90;;;;;;2082321;28;863;-62
2021/06/05 00:24:16;;;;;;;;;;;21.50;99.90;;;;;;2081123;28;715;-63
2021/06/05 00:25:35;;;;;;;;;;;21.50;99.90;;;;;;2073660;28;832;-63
2021/06/05 00:26:54;;;;;;;;;;;21.50;99.90;;;;;;2081174;28;1310;-63
2021/06/05 00:28:13;;;;;;;;;;;21.50;99.90;;;;;;2077246;28;753;-62
2021/06/05 00:29:32;;;;;;;;;;;21.50;99.90;;;;;;2073408;28;1537;-63
2021/06/05 00:30:52;;;;;;;;;;;21.50;99.90;;;;;;2078600;28;717;-63
2021/06/05 00:32:11;;;;;;;;;;;21.50;99.90;;;;;;2065211;28;765;-61
2021/06/05 00:33:30;;;;;;;;;;;21.50;99.90;;;;;;2070312;28;1432;-60
2021/06/05 00:34:49;;;;;;;;;;;21.50;99.90;;;;;;2079503;28;913;-63
2021/06/05 00:36:09;;;;;;;;;;;21.50;99.90;;;;;;2085863;28;1040;-63
2021/06/05 00:37:28;;;;;;;;;;;21.50;99.90;;;;;;2088529;28;1009;-63
2021/06/05 00:38:48;;;;;;;;;;;21.50;99.90;;;;;;2090066;28;686;-63
2021/06/05 00:40:15;;;;;;;;;;;21.50;99.90;;;;;;2073809;28;1698;-63
2021/06/05 00:41:34;;;;;;;;;;;21.50;99.90;;;;;;2071042;28;2096;-63
2021/06/05 00:42:53;;;;;;;;;;;21.40;99.90;;;;;;2073367;28;718;-63
2021/06/05 00:44:13;;;;;;;;;;;21.40;99.90;;;;;;2069301;28;773;-62
2021/06/05 00:45:33;;;;;;;;;;;21.40;99.90;;;;;;2078562;28;780;-62
2021/06/05 00:46:53;;;;;;;;;;;21.50;99.90;;;;;;2081234;28;742;-62
2021/06/05 00:48:13;;;;;;;;;;;21.50;99.90;;;;;;2074716;28;1255;-62
2021/06/05 00:49:38;;;;;;;;;;;21.50;99.90;;;;;;2075953;28;1681;-62
2021/06/05 00:50:57;;;;;;;;;;;21.40;99.90;;;;;;2069807;28;1534;-62
2021/06/05 00:52:20;;;;;;;;;;;21.40;99.90;;;;;;2068137;28;1352;-62
2021/06/05 00:53:40;;;;;;;;;;;21.40;99.90;;;;;;2068610;28;1390;-62
2021/06/05 00:55:03;;;;;;;;;;;21.40;99.90;;;;;;2089085;28;714;-62
2021/06/05 00:56:22;;;;;;;;;;;21.40;99.90;;;;;;2081185;28;714;-62
2021/06/05 00:57:41;;;;;;;;;;;21.40;99.90;;;;;;2070027;28;749;-62
2021/06/05 00:59:01;;;;;;;;;;;21.40;99.90;;;;;;2078268;28;779;-62
2021/06/05 01:00:21;;;;;;;;;;;21.40;99.90;;;;;;2070286;28;740;-62
2021/06/05 01:01:41;;;;;;;;;;;21.40;99.90;;;;;;2079532;28;1625;-62
2021/06/05 01:03:01;;;;;;;;;;;21.40;99.90;;;;;;2081908;28;1189;-62
2021/06/05 01:04:22;;;;;;;;;;;21.40;99.90;;;;;;2081089;28;1180;-62
2021/06/05 01:05:43;;;;;;;;;;;21.40;99.90;;;;;;2073797;28;894;-62
2021/06/05 01:07:04;;;;;;;;;;;21.40;99.90;;;;;;2084468;28;1405;-62
2021/06/05 01:08:26;;;;;;;;;;;21.40;99.90;;;;;;2074779;28;1393;-62
2021/06/05 01:09:57;;;;;;;;;;;21.40;99.90;;;;;;2078828;28;1221;-62
2021/06/05 01:11:22;;;;;;;;;;;21.40;99.90;;;;;;2072824;28;1701;-62
2021/06/05 01:13:00;;;;;;;;;;;21.40;99.90;;;;;;2070214;28;713;-62
2021/06/05 01:14:34;;;;;;;;;;;21.40;99.90;;;;;;2080554;28;1068;-63
2021/06/05 01:15:55;;;;;;;;;;;21.40;99.90;;;;;;2080992;28;1963;-63
2021/06/05 01:17:15;;;;;;;;;;;21.40;99.90;;;;;;2067200;28;1693;-62
2021/06/05 01:18:47;;;;;;;;;;;21.40;99.90;;;;;;2067743;28;963;-62
2021/06/05 01:20:25;;;;;;;;;;;21.30;99.90;;;;;;2068856;28;1179;-62
2021/06/05 01:21:52;;;;;;;;;;;21.40;99.90;;;;;;2080995;28;1613;-62
2021/06/05 01:23:13;;;;;;;;;;;21.30;99.90;;;;;;2080742;28;1719;-62
2021/06/05 01:24:36;;;;;;;;;;;21.40;99.90;;;;;;2072383;28;768;-62
2021/06/05 01:25:58;;;;;;;;;;;21.30;99.90;;;;;;2078426;28;730;-62
2021/06/05 01:27:21;;;;;;;;;;;21.40;99.90;;;;;;2080329;28;1597;-62
2021/06/05 01:29:06;;;;;;;;;;;21.40;99.90;;;;;;2067472;28;729;-62
2021/06/05 01:30:35;;;;;;;;;;;21.30;99.90;;;;;;2080986;28;718;-62
2021/06/05 01:31:56;;;;;;;;;;;21.30;99.90;;;;;;2072586;28;1964;-62
2021/06/05 01:33:18;;;;;;;;;;;21.40;99.90;;;;;;2070225;28;1468;-62
2021/06/05 01:34:42;;;;;;;;;;;21.40;99.90;;;;;;2069816;28;1034;-62
2021/06/05 01:36:03;;;;;;;;;;;21.30;99.90;;;;;;2081511;28;1906;-62
2021/06/05 01:37:24;;;;;;;;;;;21.30;99.90;;;;;;2074382;28;1072;-62
2021/06/05 01:38:54;;;;;;;;;;;21.30;99.90;;;;;;2072439;28;760;-62
2021/06/05 01:40:17;;;;;;;;;;;21.30;99.90;;;;;;2079388;28;737;-62
2021/06/05 01:41:38;;;;;;;;;;;21.30;99.90;;;;;;2072745;28;1432;-62
2021/06/05 01:42:58;;;;;;;;;;;21.30;99.90;;;;;;2067878;28;702;-62
2021/06/05 01:44:21;;;;;;;;;;;21.30;99.90;;;;;;2069918;28;973;-62
2021/06/05 01:45:42;;;;;;;;;;;21.30;99.90;;;;;;2081048;28;825;-62
2021/06/05 01:47:02;;;;;;;;;;;21.30;99.90;;;;;;2075636;28;713;-62
2021/06/05 01:48:21;;;;;;;;;;;21.30;99.90;;;;;;2076520;28;1289;-62
2021/06/05 01:49:42;;;;;;;;;;;21.30;99.90;;;;;;2080162;28;1738;-62
2021/06/05 01:51:03;;;;;;;;;;;21.30;99.90;;;;;;2077390;28;1207;-62
2021/06/05 01:52:27;;;;;;;;;;;21.20;99.90;;;;;;2069442;28;1859;-62
2021/06/05 01:53:51;;;;;;;;;;;21.30;99.90;;;;;;2078616;28;1459;-62
2021/06/05 01:55:18;;;;;;;;;;;21.20;99.90;;;;;;2065103;28;1966;-62
2021/06/05 01:56:43;;;;;;;;;;;21.30;99.90;;;;;;2076749;28;1361;-62
2021/06/05 01:58:14;;;;;;;;;;;21.20;99.90;;;;;;2070953;28;1586;-63
2021/06/05 01:59:49;;;;;;;;;;;21.20;99.90;;;;;;2080216;28;1683;-62
2021/06/05 02:01:12;;;;;;;;;;;21.20;99.90;;;;;;2077686;28;1596;-62
2021/06/05 02:02:34;;;;;;;;;;;21.20;99.90;;;;;;2086241;28;1065;-62
2021/06/05 02:03:57;;;;;;;;;;;21.20;99.90;;;;;;2075193;28;1313;-62
2021/06/05 02:05:26;;;;;;;;;;;21.30;99.90;;;;;;2077401;28;930;-62
2021/06/05 02:06:48;;;;;;;;;;;21.30;99.90;;;;;;2074014;28;902;-63
2021/06/05 02:08:07;;;;;;;;;;;21.30;99.90;;;;;;2075315;28;1514;-62
2021/06/05 02:09:28;;;;;;;;;;;21.20;99.90;;;;;;2077917;28;725;-62
2021/06/05 02:11:04;;;;;;;;;;;21.20;99.90;;;;;;2065931;28;711;-62
2021/06/05 02:12:24;;;;;;;;;;;21.30;99.90;;;;;;2079169;28;1616;-62
2021/06/05 02:13:54;;;;;;;;;;;21.20;99.90;;;;;;2071626;28;1727;-62
2021/06/05 02:15:15;;;;;;;;;;;21.20;99.90;;;;;;2072233;28;1973;-62
2021/06/05 02:16:36;;;;;;;;;;;21.20;99.90;;;;;;2064552;28;781;-63
2021/06/05 02:17:56;;;;;;;;;;;21.30;99.90;;;;;;2061190;28;1683;-62
2021/06/05 02:19:24;;;;;;;;;;;21.20;99.90;;;;;;2075106;28;754;-62
2021/06/05 02:20:59;;;;;;;;;;;21.20;99.90;;;;;;2075055;28;1309;-62
2021/06/05 02:22:20;;;;;;;;;;;21.20;99.90;;;;;;2062105;28;1555;-63
2021/06/05 02:23:42;;;;;;;;;;;21.20;99.90;;;;;;2069233;28;1421;-62
2021/06/05 02:25:03;;;;;;;;;;;21.20;99.90;;;;;;2067098;28;1642;-62
2021/06/05 02:26:29;;;;;;;;;;;21.20;99.90;;;;;;2069889;28;820;-62
2021/06/05 02:27:52;;;;;;;;;;;21.20;99.90;;;;;;2072427;28;805;-62
2021/06/05 02:29:15;;;;;;;;;;;21.20;99.90;;;;;;2072527;28;760;-62
2021/06/05 02:30:36;;;;;;;;;;;21.20;99.90;;;;;;2062082;28;1744;-62
2021/06/05 02:31:55;;;;;;;;;;;21.20;99.90;;;;;;2068520;28;1355;-62
2021/06/05 02:33:14;;;;;;;;;;;21.20;99.90;;;;;;2064335;28;1426;-62
2021/06/05 02:34:39;;;;;;;;;;;21.20;99.90;;;;;;2069132;28;1202;-62
2021/06/05 02:35:59;;;;;;;;;;;21.20;99.90;;;;;;2061459;28;1991;-62
2021/06/05 02:37:28;;;;;;;;;;;21.20;99.90;;;;;;2062179;28;998;-62
2021/06/05 02:38:49;;;;;;;;;;;21.20;99.90;;;;;;2069426;28;1188;-63
2021/06/05 02:40:13;;;;;;;;;;;21.20;99.90;;;;;;2077773;28;1083;-63
2021/06/05 02:41:32;;;;;;;;;;;21.20;99.90;;;;;;2070462;28;875;-62
2021/06/05 02:42:56;;;;;;;;;;;21.10;99.90;;;;;;2068106;28;1161;-63
2021/06/05 02:44:15;;;;;;;;;;;21.10;99.90;;;;;;2075356;28;1608;-62
2021/06/05 02:45:35;;;;;;;;;;;21.20;99.90;;;;;;2078653;28;906;-63
2021/06/05 02:46:56;;;;;;;;;;;21.10;99.90;;;;;;2071306;28;1206;-62
2021/06/05 02:48:15;;;;;;;;;;;21.10;99.90;;;;;;2072477;28;767;-62
2021/06/05 02:49:36;;;;;;;;;;;21.10;99.90;;;;;;2068874;28;1080;-62
2021/06/05 02:50:59;;;;;;;;;;;21.20;99.90;;;;;;2064744;28;915;-62
2021/06/05 02:52:29;;;;;;;;;;;21.20;99.90;;;;;;2068604;28;1226;-62
2021/06/05 02:53:52;;;;;;;;;;;21.10;99.90;;;;;;2075133;28;1494;-63
2021/06/05 02:55:16;;;;;;;;;;;21.10;99.90;;;;;;2072425;28;1973;-63
2021/06/05 02:56:37;;;;;;;;;;;21.20;99.90;;;;;;2079962;28;920;-62
2021/06/05 02:57:57;;;;;;;;;;;21.20;99.90;;;;;;2071381;28;1322;-62
2021/06/05 02:59:21;;;;;;;;;;;21.10;99.90;;;;;;2072408;28;1085;-62
2021/06/05 03:00:44;;;;;;;;;;;21.10;99.90;;;;;;2068856;28;1071;-63
2021/06/05 03:02:07;;;;;;;;;;;21.10;99.90;;;;;;2063269;28;1262;-63
2021/06/05 03:03:27;;;;;;;;;;;21.10;99.90;;;;;;2066756;28;1449;-62
2021/06/05 03:04:47;;;;;;;;;;;21.20;99.90;;;;;;2067018;28;1224;-62
2021/06/05 03:06:07;;;;;;;;;;;21.20;99.90;;;;;;2068513;28;1142;-63
2021/06/05 03:07:26;;;;;;;;;;;21.20;99.90;;;;;;2074439;28;1045;-62
2021/06/05 03:08:46;;;;;;;;;;;21.10;99.90;;;;;;2071392;28;1021;-62
2021/06/05 03:10:06;;;;;;;;;;;21.10;99.90;;;;;;2071385;28;1299;-62
2021/06/05 03:11:26;;;;;;;;;;;21.10;99.90;;;;;;2079060;28;1329;-63
2021/06/05 03:12:48;;;;;;;;;;;21.10;99.90;;;;;;2065410;28;1436;-62
2021/06/05 03:14:08;;;;;;;;;;;21.10;99.90;;;;;;2070617;28;1567;-62
2021/06/05 03:15:27;;;;;;;;;;;21.10;99.90;;;;;;2071946;28;1965;-62
2021/06/05 03:16:47;;;;;;;;;;;21.10;99.90;;;;;;2069829;28;1099;-62
2021/06/05 03:18:07;;;;;;;;;;;21.10;99.90;;;;;;2066438;28;1259;-62
2021/06/05 03:19:27;;;;;;;;;;;21.10;99.90;;;;;;2070122;28;1235;-62
2021/06/05 03:20:48;;;;;;;;;;;21.10;99.90;;;;;;2071469;28;1254;-61
2021/06/05 03:22:08;;;;;;;;;;;21.10;99.90;;;;;;2068782;28;1404;-62
2021/06/05 03:23:35;;;;;;;;;;;21.10;99.90;;;;;;2075994;28;1320;-62
2021/06/05 03:24:57;;;;;;;;;;;21.10;99.90;;;;;;2068442;28;1430;-62
2021/06/05 03:26:17;;;;;;;;;;;21.10;99.90;;;;;;2069727;28;1014;-62
2021/06/05 03:27:38;;;;;;;;;;;21.10;99.90;;;;;;2070476;28;1317;-63
2021/06/05 03:28:58;;;;;;;;;;;21.10;99.90;;;;;;2071766;28;1181;-62
2021/06/05 03:30:20;;;;;;;;;;;21.00;99.90;;;;;;2073694;28;1030;-62
2021/06/05 03:31:42;;;;;;;;;;;21.10;99.90;;;;;;2077196;28;1641;-62
2021/06/05 03:33:02;;;;;;;;;;;21.10;99.90;;;;;;2077426;28;1467;-62
2021/06/05 03:34:23;;;;;;;;;;;21.00;99.90;;;;;;2077253;28;1127;-62
2021/06/05 03:35:42;;;;;;;;;;;21.00;99.90;;;;;;2072360;28;1906;-62
2021/06/05 03:37:05;;;;;;;;;;;21.10;99.90;;;;;;2068814;28;1328;-62
2021/06/05 03:38:25;;;;;;;;;;;21.00;99.90;;;;;;2078789;28;1291;-62
2021/06/05 03:39:45;;;;;;;;;;;21.10;99.90;;;;;;2069846;28;1165;-63
2021/06/05 03:41:04;;;;;;;;;;;21.10;99.90;;;;;;2068896;28;1735;-62
2021/06/05 03:42:24;;;;;;;;;;;21.00;99.90;;;;;;2069437;28;1049;-62
2021/06/05 03:43:44;;;;;;;;;;;21.10;99.90;;;;;;2077746;28;1421;-62
2021/06/05 03:45:06;;;;;;;;;;;21.10;99.90;;;;;;2068221;28;1486;-62
2021/06/05 03:46:26;;;;;;;;;;;21.00;99.90;;;;;;2068260;28;1232;-63
2021/06/05 03:47:47;;;;;;;;;;;21.00;99.90;;;;;;2073608;28;1309;-63
2021/06/05 03:49:09;;;;;;;;;;;21.10;99.90;;;;;;2074951;28;1064;-62
2021/06/05 03:50:30;;;;;;;;;;;21.00;99.90;;;;;;2062982;28;1460;-63
2021/06/05 03:51:50;;;;;;;;;;;21.00;99.90;;;;;;2071793;28;1120;-62
2021/06/05 03:53:10;;;;;;;;;;;21.10;99.90;;;;;;2079262;28;1061;-63
2021/06/05 03:54:30;;;;;;;;;;;21.00;99.90;;;;;;2061228;28;1101;-62
2021/06/05 03:55:50;;;;;;;;;;;21.10;99.90;;;;;;2069782;28;1964;-62
2021/06/05 03:57:09;;;;;;;;;;;21.00;99.90;;;;;;2077311;28;1106;-62
2021/06/05 03:58:29;;;;;;;;;;;21.00;99.90;;;;;;2077263;28;1230;-62
2021/06/05 03:59:51;;;;;;;;;;;21.00;99.90;;;;;;2078655;28;1136;-62
2021/06/05 04:01:12;;;;;;;;;;;21.00;99.90;;;;;;2080246;28;1672;-63
2021/06/05 04:02:31;;;;;;;;;;;21.00;99.90;;;;;;2077414;28;1262;-62
2021/06/05 04:03:51;;;;;;;;;;;20.90;99.90;;;;;;2067357;28;1473;-63
2021/06/05 04:05:10;;;;;;;;;;;20.90;99.90;;;;;;2075528;28;1247;-63
2021/06/05 04:06:29;;;;;;;;;;;21.00;99.90;;;;;;2076803;28;1267;-63
2021/06/05 04:07:48;;;;;;;;;;;21.00;99.90;;;;;;2070594;28;1357;-62
2021/06/05 04:09:07;;;;;;;;;;;21.00;99.90;;;;;;2075575;28;1278;-63
2021/06/05 04:10:27;;;;;;;;;;;21.00;99.90;;;;;;2080066;28;1275;-63
2021/06/05 04:11:46;;;;;;;;;;;21.00;99.90;;;;;;2079644;28;1441;-63
2021/06/05 04:13:05;;;;;;;;;;;21.00;99.90;;;;;;2073417;28;1272;-63
2021/06/05 04:14:24;;;;;;;;;;;21.10;99.90;;;;;;2074732;28;1305;-63
2021/06/05 04:15:44;;;;;;;;;;;21.00;99.90;;;;;;2066332;28;1906;-63
2021/06/05 04:17:04;;;;;;;;;;;21.00;99.90;;;;;;2067506;28;1264;-62
2021/06/05 04:18:24;;;;;;;;;;;21.00;99.90;;;;;;2069032;28;1162;-63
2021/06/05 04:19:43;;;;;;;;;;;21.00;99.90;;;;;;2075194;28;1221;-63
2021/06/05 04:21:03;;;;;;;;;;;21.00;99.90;;;;;;2081432;28;1347;-62
2021/06/05 04:22:22;;;;;;;;;;;21.00;99.90;;;;;;2078557;28;1115;-63
2021/06/05 04:23:41;;;;;;;;;;;21.00;99.90;;;;;;2076639;28;1438;-63
2021/06/05 04:25:01;;;;;;;;;;;21.00;99.90;;;;;;2081494;28;1442;-63
2021/06/05 04:26:20;;;;;;;;;;;21.00;99.90;;;;;;2078331;28;1378;-62
2021/06/05 04:27:39;;;;;;;;;;;21.00;99.90;;;;;;2080113;28;1284;-63
2021/06/05 04:28:58;;;;;;;;;;;21.00;99.90;;;;;;2081232;28;1291;-63
2021/06/05 04:30:18;;;;;;;;;;;21.00;99.90;;;;;;2071916;28;1404;-63
2021/06/05 04:31:37;;;;;;;;;;;21.00;99.90;;;;;;2076521;28;1616;-63
2021/06/05 04:32:57;;;;;;;;;;;21.00;99.90;;;;;;2068335;28;1480;-63
2021/06/05 04:34:18;;;;;;;;;;;21.00;99.90;;;;;;2067485;28;1288;-63
2021/06/05 04:35:37;;;;;;;;;;;21.00;99.90;;;;;;2069324;28;1898;-63
2021/06/05 04:36:56;;;;;;;;;;;21.00;99.90;;;;;;2072822;28;1199;-62
2021/06/05 04:38:15;;;;;;;;;;;21.00;99.90;;;;;;2078026;28;1165;-62
2021/06/05 04:39:34;;;;;;;;;;;21.00;99.90;;;;;;2069087;28;1021;-62
2021/06/05 04:40:54;;;;;;;;;;;21.00;99.90;;;;;;2073133;28;1255;-63
2021/06/05 04:42:13;;;;;;;;;;;21.00;99.90;;;;;;2078130;28;1346;-63
2021/06/05 04:43:32;;;;;;;;;;;21.00;99.90;;;;;;2068707;28;1419;-63
2021/06/05 04:44:52;;;;;;;;;;;21.00;99.90;;;;;;2071594;28;948;-62
2021/06/05 04:46:13;;;;;;;;;;;21.00;99.90;;;;;;2069532;28;1262;-63
2021/06/05 04:47:32;;;;;;;;;;;20.90;99.90;;;;;;2074246;28;1129;-62
2021/06/05 04:48:51;;;;;;;;;;;21.00;99.90;;;;;;2079971;28;1434;-62
2021/06/05 04:50:11;;;;;;;;;;;20.90;99.90;;;;;;2077481;28;1268;-62
2021/06/05 04:51:30;;;;;;;;;;;21.00;99.90;;;;;;2076105;28;1709;-63
2021/06/05 04:52:49;;;;;;;;;;;20.90;99.90;;;;;;2073908;28;1407;-62
2021/06/05 04:54:08;;;;;;;;;;;20.90;99.90;;;;;;2076044;28;1537;-63
2021/06/05 04:55:28;;;;;;;;;;;21.00;99.90;;;;;;2064666;28;1993;-63
2021/06/05 04:56:49;;;;;;;;;;;21.00;99.90;;;;;;2070853;28;1358;-62
2021/06/05 04:58:08;;;;;;;;;;;20.90;99.90;;;;;;2078616;28;1463;-63
2021/06/05 04:59:27;;;;;;;;;;;20.90;99.90;;;;;;2065705;28;1146;-63
2021/06/05 05:00:47;;;;;;;;;;;20.90;99.90;;;;;;2073470;28;1448;-63
2021/06/05 05:02:07;;;;;;;;;;;20.90;99.90;;;;;;2072530;28;1436;-62
2021/06/05 05:03:27;;;;;;;;;;;20.90;99.90;;;;;;2071125;28;1404;-62
2021/06/05 05:04:46;;;;;;;;;;;20.90;99.90;;;;;;2074448;28;1641;-62
2021/06/05 05:06:06;;;;;;;;;;;20.90;99.90;;;;;;2071140;28;1702;-62
2021/06/05 05:07:25;;;;;;;;;;;20.90;99.90;;;;;;2078001;28;1754;-62
2021/06/05 05:08:44;;;;;;;;;;;20.90;99.90;;;;;;2083284;28;1121;-63
2021/06/05 05:10:04;;;;;;;;;;;21.00;99.90;;;;;;2061872;28;1261;-63
2021/06/05 05:11:23;;;;;;;;;;;20.90;99.90;;;;;;2063165;28;1828;-62
2021/06/05 05:12:43;;;;;;;;;;;20.90;99.90;;;;;;2075893;28;1318;-63
2021/06/05 05:14:03;;;;;;;;;;;20.90;99.90;;;;;;2065942;28;1464;-62
2021/06/05 05:15:22;;;;;;;;;;;20.90;99.90;;;;;;2080608;28;1964;-62
2021/06/05 05:16:41;;;;;;;;;;;20.90;99.90;;;;;;2073010;28;1076;-62
2021/06/05 05:18:00;;;;;;;;;;;21.00;99.90;;;;;;2078256;28;721;-63
2021/06/05 05:19:20;;;;;;;;;;;20.90;99.90;;;;;;2076001;28;1562;-63
2021/06/05 05:20:39;;;;;;;;;;;20.90;99.90;;;;;;2070234;28;721;-62
2021/06/05 05:21:58;;;;;;;;;;;20.90;99.90;;;;;;2078703;28;1643;-62
2021/06/05 05:23:18;;;;;;;;;;;20.90;99.90;;;;;;2072863;28;1310;-60
2021/06/05 05:24:37;;;;;;;;;;;20.80;99.90;;;;;;2077482;28;694;-60
2021/06/05 05:25:57;;;;;;;;;;;20.80;99.90;;;;;;2081400;28;787;-60
2021/06/05 05:27:16;;;;;;;;;;;20.80;99.90;;;;;;2080876;28;808;-61
2021/06/05 05:28:35;;;;;;;;;;;20.80;99.90;;;;;;2064752;28;719;-61
2021/06/05 05:29:54;;;;;;;;;;;20.90;99.90;;;;;;2074536;28;772;-61
2021/06/05 05:31:14;;;;;;;;;;;20.80;99.90;;;;;;2072993;28;725;-61
2021/06/05 05:32:33;;;;;;;;;;;20.80;99.90;;;;;;2070226;28;733;-61
2021/06/05 05:33:52;;;;;;;;;;;20.80;99.90;;;;;;2072598;28;1389;-62
2021/06/05 05:35:11;;;;;;;;;;;20.90;99.90;;;;;;2079557;28;1552;-60
2021/06/05 05:36:33;;;;;;;;;;;20.90;99.90;;;;;;2073902;28;1191;-61
2021/06/05 05:37:52;;;;;;;;;;;20.80;99.90;;;;;;2072815;28;729;-61
2021/06/05 05:39:13;;;;;;;;;;;20.90;99.90;;;;;;2077792;28;920;-61
2021/06/05 05:40:32;;;;;;;;;;;20.90;99.90;;;;;;2086211;28;720;-61
2021/06/05 05:41:53;;;;;;;;;;;20.90;99.90;;;;;;2089329;28;786;-61
2021/06/05 05:43:12;;;;;;;;;;;20.90;99.90;;;;;;2089520;28;764;-61
2021/06/05 05:44:32;;;;;;;;;;;20.90;99.90;;;;;;2087671;28;1568;-61
2021/06/05 05:45:51;;;;;;;;;;;20.90;99.90;;;;;;2081283;28;724;-61
2021/06/05 05:47:10;;;;;;;;;;;20.90;99.90;;;;;;2072658;28;802;-61
2021/06/05 05:48:30;;;;;;;;;;;20.90;99.90;;;;;;2077604;28;725;-61
2021/06/05 05:49:49;;;;;;;;;;;20.90;99.90;;;;;;2072886;28;722;-61
2021/06/05 05:51:08;;;;;;;;;;;20.90;99.90;;;;;;2072737;28;853;-61
2021/06/05 05:52:28;;;;;;;;;;;20.90;99.90;;;;;;2069711;28;744;-61
2021/06/05 05:53:47;;;;;;;;;;;20.90;99.90;;;;;;2077881;28;1341;-60
2021/06/05 05:55:06;;;;;;;;;;;20.90;99.90;;;;;;2072649;28;1621;-61
2021/06/05 05:56:26;;;;;;;;;;;20.90;99.90;;;;;;2064428;28;757;-61
2021/06/05 05:57:49;;;;;;;;;;;20.90;99.90;;;;;;2069313;28;1899;-61
2021/06/05 05:59:08;;;;;;;;;;;20.90;99.90;;;;;;2077656;28;942;-61
2021/06/05 06:00:28;;;;;;;;;;;20.90;99.90;;;;;;2080348;28;1238;-61
2021/06/05 06:01:48;;;;;;;;;;;20.90;99.90;;;;;;2077849;28;811;-61
2021/06/05 06:03:07;;;;;;;;;;;20.80;99.90;;;;;;2081662;28;717;-60
2021/06/05 06:04:26;;;;;;;;;;;20.80;99.90;;;;;;2080092;28;1056;-60
2021/06/05 06:05:45;;;;;;;;;;;20.80;99.90;;;;;;2076371;28;846;-60
2021/06/05 06:07:04;;;;;;;;;;;20.80;99.90;;;;;;2085190;28;1036;-60
2021/06/05 06:08:24;;;;;;;;;;;20.90;99.90;;;;;;2080822;28;772;-60
2021/06/05 06:09:43;;;;;;;;;;;20.80;99.90;;;;;;2081342;28;703;-57
2021/06/05 06:11:03;;;;;;;;;;;20.90;99.90;;;;;;2081496;28;754;-64
2021/06/05 06:12:22;;;;;;;;;;;20.80;99.90;;;;;;2072724;28;720;-60
2021/06/05 06:13:41;;;;;;;;;;;20.80;99.90;;;;;;2077585;28;1522;-60
2021/06/05 06:15:00;;;;;;;;;;;20.80;99.90;;;;;;2072271;28;2016;-61
2021/06/05 06:16:20;;;;;;;;;;;20.80;99.90;;;;;;2078243;28;724;-59
2021/06/05 06:17:40;;;;;;;;;;;20.70;99.90;;;;;;2080900;28;730;-61
2021/06/05 06:18:59;;;;;;;;;;;20.70;99.90;;;;;;2081049;28;768;-60
2021/06/05 06:20:22;;;;;;;;;;;20.80;99.90;;;;;;2081006;28;719;-61
2021/06/05 06:21:42;;;;;;;;;;;20.80;99.90;;;;;;2064687;28;1097;-60
2021/06/05 06:23:01;;;;;;;;;;;20.80;99.90;;;;;;2069071;28;1862;-61
2021/06/05 06:24:20;;;;;;;;;;;20.80;99.90;;;;;;2072048;28;730;-60
2021/06/05 06:25:40;;;;;;;;;;;20.80;99.90;;;;;;2077795;28;1998;-60
2021/06/05 06:26:59;;;;;;;;;;;20.80;99.90;;;;;;2073977;28;741;-62
2021/06/05 06:28:20;;;;;;;;;;;20.80;99.90;;;;;;2062676;28;1597;-61
2021/06/05 06:29:40;;;;;;;;;;;20.80;99.90;;;;;;2064545;28;1159;-62
2021/06/05 06:31:00;;;;;;;;;;;20.80;99.90;;;;;;2070286;28;1160;-60
2021/06/05 06:32:19;;;;;;;;;;;20.80;99.90;;;;;;2074987;28;1285;-61
2021/06/05 06:33:38;;;;;;;;;;;20.80;99.90;;;;;;2079255;28;1382;-61
2021/06/05 06:34:57;;;;;;;;;;;20.90;99.90;;;;;;2080622;28;1417;-62
2021/06/05 06:36:17;;;;;;;;;;;20.80;99.90;;;;;;2078301;28;1907;-61
2021/06/05 06:37:35;;;;;;;;;;;20.80;99.90;;;;;;2070407;28;1418;-61
2021/06/05 06:38:55;;;;;;;;;;;20.80;99.90;;;;;;2078392;28;1346;-61
2021/06/05 06:40:14;;;;;;;;;;;20.80;99.90;;;;;;2079522;28;1616;-61
2021/06/05 06:41:36;;;;;;;;;;;20.80;99.90;;;;;;2079097;28;1223;-59
2021/06/05 06:42:55;;;;;;;;;;;20.80;99.90;;;;;;2081725;28;1193;-60
2021/06/05 06:44:14;;;;;;;;;;;20.80;99.90;;;;;;2080957;28;1436;-60
2021/06/05 06:45:33;;;;;;;;;;;20.80;99.90;;;;;;2061635;28;1260;-61
2021/06/05 06:46:53;;;;;;;;;;;20.80;99.90;;;;;;2070343;28;1213;-62
2021/06/05 06:48:12;;;;;;;;;;;20.80;99.90;;;;;;2074246;28;1359;-61
2021/06/05 06:49:31;;;;;;;;;;;20.90;99.90;;;;;;2069202;28;1127;-61
2021/06/05 06:50:50;;;;;;;;;;;20.80;99.90;;;;;;2069093;28;1412;-60
2021/06/05 06:52:10;;;;;;;;;;;20.80;99.90;;;;;;2078922;28;1139;-61
2021/06/05 06:53:29;;;;;;;;;;;20.80;99.90;;;;;;2081014;28;1488;-60
2021/06/05 06:54:48;;;;;;;;;;;20.80;99.90;;;;;;2077529;28;1969;-59
2021/06/05 06:56:07;;;;;;;;;;;20.80;99.90;;;;;;2082569;28;1906;-67
2021/06/05 06:57:27;;;;;;;;;;;20.90;99.90;;;;;;2082204;28;797;-62
2021/06/05 06:58:46;;;;;;;;;;;20.80;99.90;;;;;;2073738;28;785;-63
2021/06/05 07:00:09;;;;;;;;;;;20.80;99.90;;;;;;2079339;28;746;-64
2021/06/05 07:01:28;;;;;;;;;;;20.80;99.90;;;;;;2082809;28;776;-62
2021/06/05 07:02:47;;;;;;;;;;;20.80;99.90;;;;;;2073989;28;740;-61
2021/06/05 07:04:07;;;;;;;;;;;20.80;99.90;;;;;;2073117;28;1918;-61
2021/06/05 07:05:26;;;;;;;;;;;20.80;99.90;;;;;;2077536;28;1107;-60
2021/06/05 07:06:45;;;;;;;;;;;20.80;99.90;;;;;;2073722;28;1575;-63
2021/06/05 07:08:06;;;;;;;;;;;20.80;99.90;;;;;;2074111;28;757;-60
2021/06/05 07:09:25;;;;;;;;;;;20.80;99.90;;;;;;2079519;28;758;-59
2021/06/05 07:10:44;;;;;;;;;;;20.80;99.90;;;;;;2083215;28;1490;-60
2021/06/05 07:12:04;;;;;;;;;;;20.70;99.90;;;;;;2090670;28;1017;-61
2021/06/05 07:13:23;;;;;;;;;;;20.80;99.90;;;;;;2090558;28;1289;-59
2021/06/05 07:14:42;;;;;;;;;;;20.80;99.90;;;;;;2083281;28;1983;-60
2021/06/05 07:16:02;;;;;;;;;;;20.70;99.90;;;;;;2081680;28;1967;-60
2021/06/05 07:17:21;;;;;;;;;;;20.80;99.90;;;;;;2073724;28;791;-60
2021/06/05 07:18:40;;;;;;;;;;;20.80;99.90;;;;;;2070692;28;771;-60
2021/06/05 07:19:59;;;;;;;;;;;20.80;99.90;;;;;;2073912;28;811;-60
2021/06/05 07:21:19;;;;;;;;;;;20.80;99.90;;;;;;2079142;28;744;-60
2021/06/05 07:22:38;;;;;;;;;;;20.80;99.90;;;;;;2082478;28;785;-60
2021/06/05 07:23:57;;;;;;;;;;;20.80;99.90;;;;;;2082265;28;1338;-61
2021/06/05 07:25:17;;;;;;;;;;;20.80;99.90;;;;;;2065687;28;734;-60
2021/06/05 07:26:36;;;;;;;;;;;20.80;99.90;;;;;;2070937;28;767;-61
2021/06/05 07:27:55;;;;;;;;;;;20.80;99.90;;;;;;2073175;28;784;-60
2021/06/05 07:29:15;;;;;;;;;;;20.80;99.90;;;;;;2065794;28;744;-60
2021/06/05 07:30:34;;;;;;;;;;;20.80;99.90;;;;;;2071024;28;747;-61
2021/06/05 07:31:53;;;;;;;;;;;20.80;99.90;;;;;;2080949;28;1760;-61
2021/06/05 07:33:13;;;;;;;;;;;20.80;99.90;;;;;;2073877;28;751;-61
2021/06/05 07:34:33;;;;;;;;;;;20.80;99.90;;;;;;2069884;28;979;-60
2021/06/05 07:35:53;;;;;;;;;;;20.80;99.90;;;;;;2080267;28;1973;-61
2021/06/05 07:37:12;;;;;;;;;;;20.80;99.90;;;;;;2077005;28;1084;-60
2021/06/05 07:38:31;;;;;;;;;;;20.80;99.90;;;;;;2068649;28;730;-61
2021/06/05 07:39:50;;;;;;;;;;;20.80;99.90;;;;;;2070306;28;738;-61
2021/06/05 07:41:10;;;;;;;;;;;20.80;99.90;;;;;;2074068;28;734;-61
2021/06/05 07:42:29;;;;;;;;;;;20.80;99.90;;;;;;2080403;28;1555;-60
2021/06/05 07:43:48;;;;;;;;;;;20.80;99.90;;;;;;2081853;28;1394;-61
2021/06/05 07:45:08;;;;;;;;;;;20.80;99.90;;;;;;2081796;28;787;-61
2021/06/05 07:46:27;;;;;;;;;;;20.80;99.90;;;;;;2073532;28;742;-61
2021/06/05 07:47:47;;;;;;;;;;;20.80;99.90;;;;;;2073583;28;737;-60
2021/06/05 07:49:06;;;;;;;;;;;20.80;99.90;;;;;;2079019;28;717;-61
2021/06/05 07:50:25;;;;;;;;;;;20.80;99.90;;;;;;2082252;28;844;-60
2021/06/05 07:51:44;;;;;;;;;;;20.80;99.90;;;;;;2081611;28;1630;-62
2021/06/05 07:53:03;;;;;;;;;;;20.80;99.90;;;;;;2082077;28;762;-60
2021/06/05 07:54:22;;;;;;;;;;;20.70;99.90;;;;;;2081732;28;783;-61
2021/06/05 07:55:42;;;;;;;;;;;20.70;99.90;;;;;;2073415;28;1969;-61
2021/06/05 07:57:02;;;;;;;;;;;20.70;99.90;;;;;;2077723;28;800;-61
2021/06/05 07:58:21;;;;;;;;;;;20.70;99.90;;;;;;2082134;28;709;-62